Alta Vista, Kansas
Current Conditions -  °F | °C
As of 5:58 PM on Saturday 22 Nov 2014 (Local Time) from KFRI Reporting Station
Overcast Overcast  
Wind Chill: 60°   Ceiling: 2300
Heat Index: 60°   Visibility: 10mi
Dew Point: 55°   Wind: 13mph
Humidity: 83%   Direction: 190°S
Pressure: 29.68"   Gusts: 20mph
Location:  38.86°N, 96.49°W
Report Text: KFRI 222358Z AUTO 19011G17KT 10SM OVC023 16/13 A2968 RMK AO2 SLP049 T01560127 10166 20127 57014
Loading
Personal Weather Stations






























Interactive Weather Map New forecast layout! Learn more

10-Day Weather Forecast

Advertisements
Track Severe Weather on mobile